LGAV

Athens/Eleftherios Venizelos International Airport

Airport
ICAO code
LGAV
IATA Code
ATH
Summary
ICAO Region
EUR
ICAO Territory
Location

Spata, Attica

Serving
Athens
Elevation
308 ft
Coordinates
37° 56' 13" N , 23° 56' 43" E
KCC
Csa
Metar
Observation
LGAV 081820Z 32008KT 9999 FEW025 29/15 Q1010 NOSIG
Station
Athens Eleftherios Venizelos International Airport
Date/Time
2022-08-08 18:20:00
Wind direction
320°
Wind speed
08 kts
Lowest cloud amount
few clouds
Temperature
29°C
Dew point
15°C
Humidity
42%
QNH
1010 hPa
Weather condition
n/a

International airport serving the Greek capital Athens. It is located 20 km east of Athens, in Spata.

Climatology

Mediterranean climate (Köppen climate classification Csa) - Hot, dry summer and a mild wet winter.

Runways

Designator Length Width Surface Rops
03L/21R 3800 45 ASP Yes/Yes
03R/21L 4000 45 ASP Yes/Yes

Airport map

Aerial View

SKYbrary Partners:

Safety knowledge contributed by: